Time;durP1;ratioP1;P1;durP2;ratioP2;P2;SDS_P1;SDS_P2;PMS_P1;PMS_P2;Temp;Humidity;BMP_temperature;BMP_pressure;BME280_temperature;BME280_humidity;BME280_pressure;Samples;Min_cycle;Max_cycle;Signal;HPM_P1;HPM_P2
2022/05/24 00:01:08;;;;;;;6.63;4.18;;;21.40;90.80;;;;;;5174503;27;46577;-67
2022/05/24 00:03:34;;;;;;;6.35;4.00;;;21.40;90.80;;;;;;5174762;27;44727;-67
2022/05/24 00:06:01;;;;;;;6.75;4.13;;;21.40;90.80;;;;;;5171048;27;44795;-67
2022/05/24 00:08:28;;;;;;;7.70;4.70;;;21.40;91.00;;;;;;5171918;27;44792;-67
2022/05/24 00:10:55;;;;;;;8.05;5.45;;;21.40;90.70;;;;;;5174155;27;45471;-67
2022/05/24 00:13:23;;;;;;;8.38;5.32;;;21.40;90.80;;;;;;5170973;27;44686;-67
2022/05/24 00:15:50;;;;;;;9.30;5.65;;;21.40;90.70;;;;;;5167394;27;44724;-67
2022/05/24 00:18:20;;;;;;;7.07;4.53;;;21.40;90.80;;;;;;5165759;27;44891;-67
2022/05/24 00:20:49;;;;;;;6.70;4.78;;;21.40;90.70;;;;;;5169151;27;45232;-67
2022/05/24 00:23:17;;;;;;;8.82;5.68;;;21.40;90.70;;;;;;5171526;27;45216;-67
2022/05/24 00:25:46;;;;;;;8.10;5.32;;;21.30;90.70;;;;;;5173778;27;44583;-67
2022/05/24 00:28:15;;;;;;;7.95;5.40;;;21.40;90.90;;;;;;5174288;27;44787;-67
2022/05/24 00:30:44;;;;;;;6.32;4.90;;;21.40;90.80;;;;;;5175430;27;45620;-67
2022/05/24 00:33:11;;;;;;;8.05;5.65;;;21.30;90.60;;;;;;5170217;27;44769;-67
2022/05/24 00:35:38;;;;;;;7.05;4.97;;;21.30;90.90;;;;;;5171728;27;44996;-67
2022/05/24 00:38:09;;;;;;;7.05;4.57;;;21.30;90.70;;;;;;5173214;27;44796;-67
2022/05/24 00:40:43;;;;;;;7.30;4.50;;;21.30;90.70;;;;;;5171727;27;46561;-67
2022/05/24 00:43:14;;;;;;;9.02;5.68;;;21.30;90.70;;;;;;5171109;27;44975;-67
2022/05/24 00:45:46;;;;;;;8.95;5.15;;;21.30;90.90;;;;;;5171779;27;44605;-67
2022/05/24 00:48:23;;;;;;;5.80;4.38;;;21.30;90.90;;;;;;5168492;27;44659;-67
2022/05/24 00:50:51;;;;;;;6.00;4.20;;;21.40;90.70;;;;;;5169468;27;45392;-67
2022/05/24 00:53:25;;;;;;;8.48;4.10;;;21.40;90.70;;;;;;5170569;27;44672;-67
2022/05/24 00:55:56;;;;;;;5.78;4.22;;;21.30;90.50;;;;;;5164265;27;44990;-67
2022/05/24 00:58:36;;;;;;;9.98;5.45;;;21.40;90.80;;;;;;5170191;27;45312;-67
2022/05/24 01:01:16;;;;;;;6.60;4.28;;;21.40;90.60;;;;;;5166874;27;47001;-67
2022/05/24 01:03:43;;;;;;;5.40;4.22;;;21.40;90.60;;;;;;5173013;27;44652;-67
2022/05/24 01:06:10;;;;;;;7.15;5.22;;;21.40;90.50;;;;;;5169863;27;45022;-67
2022/05/24 01:08:37;;;;;;;7.07;4.82;;;21.40;90.60;;;;;;5171390;27;45217;-67
2022/05/24 01:11:05;;;;;;;8.05;4.80;;;21.40;90.50;;;;;;5173135;27;45287;-67
2022/05/24 01:13:32;;;;;;;6.13;4.07;;;21.40;90.40;;;;;;5171452;27;44691;-67
2022/05/24 01:15:59;;;;;;;6.22;5.00;;;21.40;90.50;;;;;;5166046;27;44688;-67
2022/05/24 01:18:27;;;;;;;10.15;5.35;;;21.40;90.60;;;;;;5169120;27;44847;-67
2022/05/24 01:21:01;;;;;;;9.30;6.70;;;21.40;90.40;;;;;;5173498;27;46584;-67
2022/05/24 01:23:49;;;;;;;8.63;5.70;;;21.40;90.40;;;;;;5166248;27;44652;-67
2022/05/24 01:26:23;;;;;;;10.27;6.60;;;21.40;90.40;;;;;;5167795;27;44987;-67
2022/05/24 01:28:54;;;;;;;9.80;6.43;;;21.40;90.50;;;;;;5169743;27;44750;-67
2022/05/24 01:31:23;;;;;;;12.20;5.88;;;21.30;90.40;;;;;;5166171;27;45496;-67
2022/05/24 01:36:38;;;;;;;7.45;5.07;;;21.40;90.50;;;;;;5169661;27;44725;-67
2022/05/24 01:39:07;;;;;;;6.22;4.45;;;21.30;90.40;;;;;;5173499;27;44836;-67
2022/05/24 01:41:38;;;;;;;4.50;3.33;;;21.30;90.60;;;;;;5182391;27;46402;-67
2022/05/24 01:44:07;;;;;;;6.15;3.75;;;21.30;90.50;;;;;;5170854;27;45622;-67
2022/05/24 01:46:37;;;;;;;2.63;1.70;;;21.30;90.50;;;;;;5163435;27;44757;-67
2022/05/24 01:49:08;;;;;;;3.85;2.47;;;21.30;90.40;;;;;;5163195;27;45061;-67
2022/05/24 01:51:42;;;;;;;3.13;2.72;;;21.30;90.50;;;;;;5163241;27;45014;-67
2022/05/24 01:54:10;;;;;;;3.47;2.20;;;21.30;90.20;;;;;;5170493;27;44685;-67
2022/05/24 01:56:43;;;;;;;2.53;2.15;;;21.30;90.10;;;;;;5173163;27;44730;-67
2022/05/24 01:59:13;;;;;;;2.65;2.20;;;21.30;90.00;;;;;;5163834;27;44902;-67
2022/05/24 02:01:46;;;;;;;3.42;2.40;;;21.30;90.00;;;;;;5161362;27;45730;-67
2022/05/24 02:04:13;;;;;;;2.95;2.00;;;21.30;89.80;;;;;;5165774;27;44744;-67
2022/05/24 02:06:40;;;;;;;4.43;2.53;;;21.30;89.80;;;;;;5171437;27;44764;-67
2022/05/24 02:09:08;;;;;;;2.83;2.28;;;21.30;89.70;;;;;;5170768;27;45025;-67
2022/05/24 02:11:36;;;;;;;3.17;2.33;;;21.30;89.70;;;;;;5158737;27;46586;-67
2022/05/24 02:14:10;;;;;;;3.67;2.47;;;21.30;89.50;;;;;;5168210;27;44676;-67
2022/05/24 02:16:44;;;;;;;3.53;2.22;;;21.30;89.50;;;;;;5165867;27;44706;-67
2022/05/24 02:19:13;;;;;;;3.30;2.60;;;21.30;89.40;;;;;;5171740;27;44967;-67
2022/05/24 02:21:43;;;;;;;4.15;2.38;;;21.30;89.40;;;;;;5170567;27;45276;-67
2022/05/24 02:24:17;;;;;;;3.92;2.20;;;21.30;89.60;;;;;;5167492;27;44670;-67
2022/05/24 02:26:44;;;;;;;3.85;2.13;;;21.30;89.50;;;;;;5167744;27;44788;-67
2022/05/24 02:29:11;;;;;;;3.95;1.98;;;21.30;89.50;;;;;;5171792;27;44940;-67
2022/05/24 02:31:40;;;;;;;2.60;1.85;;;21.30;89.60;;;;;;5170752;27;46482;-67
2022/05/24 02:34:07;;;;;;;2.17;1.63;;;21.30;89.50;;;;;;5166919;27;44700;-67
2022/05/24 02:36:33;;;;;;;3.92;1.85;;;21.30;89.40;;;;;;5159617;27;44904;-67
2022/05/24 02:39:00;;;;;;;2.10;1.60;;;21.20;89.30;;;;;;5167482;27;44835;-67
2022/05/24 02:41:29;;;;;;;1.98;1.52;;;21.30;89.40;;;;;;5168323;27;46434;-67
2022/05/24 02:43:57;;;;;;;1.50;1.20;;;21.20;89.20;;;;;;5172889;27;44996;-67
2022/05/24 02:46:24;;;;;;;2.00;1.45;;;21.20;89.00;;;;;;5172782;27;44635;-67
2022/05/24 02:48:52;;;;;;;2.17;1.30;;;21.20;88.80;;;;;;5172535;27;45811;-67
2022/05/24 02:51:19;;;;;;;3.17;1.50;;;21.20;88.80;;;;;;5170475;27;45549;-67
2022/05/24 02:53:46;;;;;;;3.10;1.65;;;21.20;88.80;;;;;;5171211;27;44702;-67
2022/05/24 02:56:14;;;;;;;2.65;1.50;;;21.20;88.60;;;;;;5169057;27;45049;-67
2022/05/24 02:58:41;;;;;;;2.95;1.58;;;21.20;88.40;;;;;;5167728;27;44786;-67
2022/05/24 03:01:14;;;;;;;2.13;1.30;;;21.20;88.30;;;;;;5169998;27;46576;-67
2022/05/24 03:03:41;;;;;;;3.13;1.50;;;21.20;88.10;;;;;;5172250;27;44598;-67
2022/05/24 03:06:09;;;;;;;3.90;1.52;;;21.20;88.10;;;;;;5168569;27;44867;-67
2022/05/24 03:11:20;;;;;;;4.18;1.60;;;21.20;87.80;;;;;;5169835;27;45194;-67
2022/05/24 03:16:32;;;;;;;1.95;1.10;;;21.20;87.80;;;;;;5164719;27;44741;-67
2022/05/24 03:18:59;;;;;;;2.70;1.45;;;21.30;87.60;;;;;;5173556;27;44896;-67
2022/05/24 03:21:27;;;;;;;2.83;1.55;;;21.30;87.80;;;;;;5173778;27;46595;-67
2022/05/24 03:23:54;;;;;;;3.30;1.50;;;21.30;87.50;;;;;;5173929;27;44763;-67
2022/05/24 03:26:21;;;;;;;1.67;1.40;;;21.30;87.50;;;;;;5171645;27;44729;-67
2022/05/24 03:28:48;;;;;;;2.97;1.60;;;21.30;87.50;;;;;;5174892;27;44677;-67
2022/05/24 03:31:16;;;;;;;2.78;1.75;;;21.30;87.70;;;;;;5170943;27;46604;-67
2022/05/24 03:33:43;;;;;;;2.17;1.45;;;21.30;87.70;;;;;;5173092;27;44693;-67
2022/05/24 03:36:10;;;;;;;3.47;1.92;;;21.30;87.40;;;;;;5171510;27;44655;-67
2022/05/24 03:38:38;;;;;;;3.25;1.60;;;21.30;87.70;;;;;;5170846;27;44934;-67
2022/05/24 03:41:05;;;;;;;2.70;1.60;;;21.20;88.40;;;;;;5170397;27;45479;-67
2022/05/24 03:43:32;;;;;;;3.88;1.52;;;21.20;88.30;;;;;;5166803;27;44695;-67
2022/05/24 03:46:04;;;;;;;4.22;1.75;;;21.20;88.00;;;;;;5171481;27;44818;-67
2022/05/24 03:48:31;;;;;;;4.28;1.80;;;21.20;87.20;;;;;;5173095;27;44693;-67
2022/05/24 03:50:59;;;;;;;4.10;1.70;;;21.20;87.10;;;;;;5167396;27;46237;-67
2022/05/24 03:53:27;;;;;;;6.95;2.17;;;21.20;88.20;;;;;;5173453;27;45331;-67
2022/05/24 03:55:55;;;;;;;3.53;1.73;;;21.30;87.00;;;;;;5173559;27;44625;-67
2022/05/24 03:58:25;;;;;;;2.72;1.70;;;21.30;86.40;;;;;;5171271;27;44811;-67
2022/05/24 04:00:52;;;;;;;3.05;1.90;;;21.30;87.30;;;;;;5171606;27;46275;-67
2022/05/24 04:03:19;;;;;;;4.25;1.67;;;21.30;86.80;;;;;;5171050;27;44757;-67
2022/05/24 04:05:47;;;;;;;4.45;1.92;;;21.30;86.80;;;;;;5173113;27;44574;-67
2022/05/24 04:08:16;;;;;;;5.38;1.95;;;21.30;86.00;;;;;;5171887;27;44745;-67
2022/05/24 04:10:43;;;;;;;4.78;1.70;;;21.30;87.00;;;;;;5160764;27;46577;-67
2022/05/24 04:13:11;;;;;;;7.57;1.60;;;21.30;85.90;;;;;;5171436;27;44945;-67
2022/05/24 04:18:04;;;;;;;4.90;1.48;;;21.30;85.40;;;;;;5111998;22;62366;-67
2022/05/24 04:20:31;;;;;;;3.95;1.58;;;21.30;86.40;;;;;;5105673;27;46587;-67
2022/05/24 04:22:58;;;;;;;4.47;1.83;;;21.30;86.30;;;;;;5103665;27;45194;-67
2022/05/24 04:25:26;;;;;;;5.55;1.67;;;21.20;86.10;;;;;;5107850;27;45328;-67
2022/05/24 04:27:53;;;;;;;5.75;1.20;;;21.30;85.80;;;;;;5109114;27;45427;-67
2022/05/24 04:30:22;;;;;;;4.30;1.38;;;21.30;85.40;;;;;;5103104;27;47420;-67
2022/05/24 04:32:49;;;;;;;6.00;1.50;;;21.30;85.40;;;;;;5101251;27;45367;-67
2022/05/24 04:35:15;;;;;;;2.25;0.98;;;21.20;85.60;;;;;;5108119;27;45373;-67
2022/05/24 04:37:42;;;;;;;3.10;0.98;;;21.20;85.50;;;;;;5108295;27;45244;-67
2022/05/24 04:40:10;;;;;;;3.03;1.17;;;21.20;86.10;;;;;;5109646;27;45296;-67
2022/05/24 04:42:35;;;;;;;4.28;1.23;;;21.20;85.70;;;;;;5104720;27;45226;-67
2022/05/24 04:45:06;;;;;;;4.22;1.20;;;21.20;86.10;;;;;;5107021;27;45191;-67
2022/05/24 04:47:35;;;;;;;3.25;1.27;;;21.20;85.70;;;;;;5098409;27;45322;-67
2022/05/24 04:50:06;;;;;;;2.50;1.17;;;21.20;85.60;;;;;;5102229;27;46595;-67
2022/05/24 04:52:35;;;;;;;2.20;0.93;;;21.20;85.90;;;;;;5107288;27;45521;-67
2022/05/24 04:55:04;;;;;;;2.08;0.80;;;21.20;85.70;;;;;;5106447;27;45302;-67
2022/05/24 04:57:30;;;;;;;1.45;0.88;;;21.20;85.40;;;;;;5109394;27;45519;-67
2022/05/24 04:59:57;;;;;;;2.35;1.20;;;21.20;85.30;;;;;;5103061;27;46610;-67
2022/05/24 05:02:24;;;;;;;1.90;1.00;;;21.30;85.10;;;;;;5108291;27;45169;-67
2022/05/24 05:04:54;;;;;;;3.50;1.15;;;21.30;85.20;;;;;;5105003;27;45425;-67
2022/05/24 05:07:21;;;;;;;4.20;0.88;;;21.30;84.90;;;;;;5104745;27;45413;-67
2022/05/24 05:09:50;;;;;;;2.53;1.02;;;21.30;84.70;;;;;;5108920;27;45235;-67
2022/05/24 05:12:17;;;;;;;1.60;0.85;;;21.20;84.60;;;;;;5102921;27;45206;-67
2022/05/24 05:14:44;;;;;;;1.30;0.90;;;21.20;84.40;;;;;;5108049;27;45316;-67
2022/05/24 05:17:12;;;;;;;2.55;1.30;;;21.30;84.40;;;;;;5106378;27;45360;-67
2022/05/24 05:19:40;;;;;;;1.08;0.70;;;21.20;84.20;;;;;;5105100;27;45990;-67
2022/05/24 05:22:08;;;;;;;1.25;0.70;;;21.20;84.20;;;;;;5103006;27;45325;-67
2022/05/24 05:24:36;;;;;;;0.85;0.52;;;21.20;84.10;;;;;;5108487;27;45112;-67
2022/05/24 05:27:03;;;;;;;1.27;0.95;;;21.20;84.10;;;;;;5104049;27;45168;-67
2022/05/24 05:32:19;;;;;;;3.13;1.00;;;21.20;84.30;;;;;;5103656;27;46366;-67
2022/05/24 05:34:47;;;;;;;2.92;0.98;;;21.20;84.20;;;;;;5104963;27;45420;-67
2022/05/24 05:37:16;;;;;;;2.28;0.90;;;21.20;84.20;;;;;;5104063;27;45357;-67
2022/05/24 05:39:42;;;;;;;2.45;0.98;;;21.20;84.00;;;;;;5106268;27;47722;-67
2022/05/24 05:42:10;;;;;;;2.35;0.80;;;21.20;84.10;;;;;;5103150;27;45397;-67
2022/05/24 05:44:36;;;;;;;2.28;0.70;;;21.10;84.20;;;;;;5102070;27;45361;-67
2022/05/24 05:47:04;;;;;;;2.35;0.60;;;21.10;84.10;;;;;;5107148;27;45435;-67
2022/05/24 05:49:30;;;;;;;2.10;0.77;;;21.10;83.90;;;;;;5103318;27;47395;-67
2022/05/24 05:51:57;;;;;;;1.75;0.70;;;21.20;84.00;;;;;;5107059;27;46052;-67
2022/05/24 05:54:25;;;;;;;0.88;0.60;;;21.10;84.20;;;;;;5105247;27;45389;-67
2022/05/24 05:56:53;;;;;;;1.48;0.60;;;21.20;84.50;;;;;;5106819;27;45483;-67
2022/05/24 05:59:20;;;;;;;2.97;0.70;;;21.20;84.40;;;;;;5104463;27;47911;-67
2022/05/24 06:01:46;;;;;;;1.40;0.80;;;21.20;84.40;;;;;;5107897;27;45130;-67
2022/05/24 06:04:13;;;;;;;1.77;0.80;;;21.10;84.10;;;;;;5106074;27;45330;-67
2022/05/24 06:06:44;;;;;;;2.42;0.80;;;21.20;84.20;;;;;;5105589;27;45629;-67
2022/05/24 06:09:11;;;;;;;0.90;0.50;;;21.20;84.30;;;;;;5103137;27;45253;-67
2022/05/24 06:11:40;;;;;;;0.90;0.50;;;21.10;84.40;;;;;;5105815;27;46482;-67
2022/05/24 06:14:07;;;;;;;0.63;0.45;;;21.20;84.30;;;;;;5104434;27;45493;-67
2022/05/24 06:16:34;;;;;;;2.55;1.00;;;21.20;84.20;;;;;;5102235;27;45357;-67
2022/05/24 06:19:02;;;;;;;1.85;0.80;;;21.20;84.20;;;;;;5090984;27;47343;-67
2022/05/24 06:21:33;;;;;;;4.28;0.73;;;21.20;84.20;;;;;;5091469;27;46614;-67
2022/05/24 06:24:00;;;;;;;1.55;0.70;;;21.20;84.30;;;;;;5098446;27;45513;-67
2022/05/24 06:26:27;;;;;;;1.33;0.75;;;21.20;84.20;;;;;;5108747;27;45515;-67
2022/05/24 06:28:56;;;;;;;1.75;0.70;;;21.20;85.40;;;;;;5104477;27;46476;-67
2022/05/24 06:31:22;;;;;;;0.98;0.65;;;21.20;84.20;;;;;;5105378;27;45319;-67
2022/05/24 06:33:49;;;;;;;2.40;0.73;;;21.20;84.30;;;;;;5108765;27;45163;-67
2022/05/24 06:36:16;;;;;;;1.63;0.68;;;21.20;84.30;;;;;;5104100;27;45504;-67
2022/05/24 06:38:43;;;;;;;2.88;0.70;;;21.20;84.90;;;;;;5105617;27;45224;-67
2022/05/24 06:41:10;;;;;;;1.73;0.70;;;21.20;85.00;;;;;;5107420;27;45282;-67
2022/05/24 06:43:38;;;;;;;2.42;0.70;;;21.20;84.60;;;;;;5108450;27;45255;-67
2022/05/24 06:46:07;;;;;;;1.10;0.70;;;21.20;84.40;;;;;;5104903;27;45184;-67
2022/05/24 06:48:35;;;;;;;2.33;0.80;;;21.20;84.80;;;;;;5107288;27;46184;-67
2022/05/24 06:51:02;;;;;;;2.72;0.80;;;21.20;84.20;;;;;;5106800;27;45273;-67
2022/05/24 06:53:30;;;;;;;1.77;0.68;;;21.20;85.20;;;;;;5107890;27;45139;-67
2022/05/24 06:55:56;;;;;;;1.10;0.70;;;21.20;84.80;;;;;;5107748;27;45213;-67
2022/05/24 06:58:23;;;;;;;2.25;1.00;;;21.20;84.20;;;;;;5096849;27;45414;-67
2022/05/24 07:03:36;;;;;;;1.77;0.90;;;21.20;84.10;;;;;;5100251;27;45557;-67
2022/05/24 07:06:03;;;;;;;1.75;0.88;;;21.20;83.90;;;;;;5098482;27;45604;-67
2022/05/24 07:08:29;;;;;;;2.63;1.00;;;21.20;83.70;;;;;;5100278;27;46158;-67
2022/05/24 07:10:56;;;;;;;2.10;0.85;;;21.20;84.10;;;;;;5102119;27;45156;-67
2022/05/24 07:13:23;;;;;;;0.80;0.45;;;21.30;84.00;;;;;;5103518;27;45473;-67
2022/05/24 07:15:50;;;;;;;2.25;0.90;;;21.20;83.60;;;;;;5104917;27;45427;-67
2022/05/24 07:18:17;;;;;;;4.22;1.30;;;21.20;83.40;;;;;;5101325;27;45549;-67
2022/05/24 07:20:45;;;;;;;2.72;0.93;;;21.30;83.40;;;;;;5099161;27;46012;-67
2022/05/24 07:23:15;;;;;;;2.15;0.90;;;21.20;83.00;;;;;;5100412;27;45226;-67
2022/05/24 07:25:42;;;;;;;2.80;0.88;;;21.30;83.10;;;;;;5097381;27;45353;-67
2022/05/24 07:28:12;;;;;;;1.10;0.75;;;21.20;82.90;;;;;;5103897;27;45979;-67
2022/05/24 07:30:38;;;;;;;1.73;1.02;;;21.20;82.80;;;;;;5105856;27;45370;-67
2022/05/24 07:33:06;;;;;;;2.80;1.02;;;21.20;82.80;;;;;;5106516;27;45389;-67
2022/05/24 07:35:33;;;;;;;2.80;0.70;;;21.20;82.90;;;;;;5106698;27;45318;-67
2022/05/24 07:38:02;;;;;;;1.88;1.05;;;21.20;82.90;;;;;;5107797;27;45287;-67
2022/05/24 07:46:06;;;;;;;2.63;1.00;;;21.20;82.80;;;;;;5106629;27;45208;-67
2022/05/24 07:48:34;;;;;;;1.52;0.82;;;21.20;82.80;;;;;;5106869;27;47327;-67
2022/05/24 07:51:01;;;;;;;1.38;0.70;;;21.20;82.80;;;;;;5105313;27;45270;-67
2022/05/24 07:53:29;;;;;;;2.20;1.00;;;21.20;82.60;;;;;;5107368;27;45268;-67
2022/05/24 07:55:56;;;;;;;2.67;0.80;;;21.20;82.80;;;;;;5107839;27;45152;-67
2022/05/24 07:58:24;;;;;;;1.80;0.90;;;21.20;82.90;;;;;;5106661;27;47130;-67
2022/05/24 08:00:51;;;;;;;2.17;0.93;;;21.20;82.70;;;;;;5109039;27;45315;-67
2022/05/24 08:03:18;;;;;;;1.65;0.80;;;21.20;82.70;;;;;;5111421;27;45242;-67
2022/05/24 08:05:45;;;;;;;1.45;0.80;;;21.30;82.80;;;;;;5109238;27;45502;-67
2022/05/24 08:08:14;;;;;;;1.42;0.60;;;21.20;82.80;;;;;;5109149;27;46588;-67
2022/05/24 08:10:42;;;;;;;1.85;0.82;;;21.30;82.60;;;;;;5110756;27;46213;-67
2022/05/24 08:13:12;;;;;;;1.85;0.70;;;21.30;82.50;;;;;;5108138;27;45210;-67
2022/05/24 08:15:39;;;;;;;1.30;0.65;;;21.30;82.60;;;;;;5110940;27;45251;-67
2022/05/24 08:18:06;;;;;;;1.48;0.60;;;21.30;82.70;;;;;;5106509;27;46614;-67
2022/05/24 08:20:35;;;;;;;2.25;0.73;;;21.30;82.50;;;;;;5106243;27;45443;-67
2022/05/24 08:23:02;;;;;;;1.52;0.52;;;21.30;82.50;;;;;;5098065;27;45179;-67
2022/05/24 08:25:30;;;;;;;0.95;0.55;;;21.30;82.40;;;;;;5105168;27;45313;-67
2022/05/24 08:28:02;;;;;;;1.25;0.65;;;21.30;82.40;;;;;;5102696;27;46331;-67
2022/05/24 08:30:30;;;;;;;1.33;0.60;;;21.30;82.30;;;;;;5107989;27;45220;-67
2022/05/24 08:32:57;;;;;;;1.17;0.40;;;21.30;82.30;;;;;;5099711;27;45280;-67
2022/05/24 08:35:25;;;;;;;0.90;0.60;;;21.30;82.50;;;;;;5098016;27;45479;-66
2022/05/24 08:37:52;;;;;;;1.10;0.50;;;21.20;82.70;;;;;;5102952;27;45199;-66
2022/05/24 08:40:22;;;;;;;1.23;0.70;;;21.30;82.40;;;;;;5099094;27;45235;-67
2022/05/24 08:43:15;;;;;;;0.93;0.60;;;21.20;82.20;;;;;;5099169;27;45334;-64
2022/05/24 08:48:41;;;;;;;3.30;0.70;;;21.30;81.70;;;;;;5090413;27;45732;-64
2022/05/24 08:51:13;;;;;;;2.22;0.70;;;21.30;81.70;;;;;;5101841;27;45539;-64
2022/05/24 08:53:45;;;;;;;0.60;0.47;;;21.20;81.30;;;;;;5102911;27;45315;-64
2022/05/24 08:56:16;;;;;;;1.90;0.50;;;21.20;80.80;;;;;;5107619;27;45221;-64
2022/05/24 08:58:47;;;;;;;3.13;0.60;;;21.20;80.40;;;;;;5102078;27;47937;-64
2022/05/24 09:01:18;;;;;;;2.22;0.60;;;21.20;79.60;;;;;;5104844;27;45228;-64
2022/05/24 09:03:46;;;;;;;3.35;1.00;;;21.30;79.80;;;;;;5104240;27;45379;-66
2022/05/24 09:06:24;;;;;;;1.88;0.73;;;21.20;79.60;;;;;;5105566;27;45535;-67
2022/05/24 09:09:06;;;;;;;1.15;0.70;;;21.30;79.60;;;;;;5103470;27;47438;-67
2022/05/24 09:11:49;;;;;;;1.58;0.68;;;21.30;79.40;;;;;;5102709;27;45595;-67
2022/05/24 09:14:26;;;;;;;1.55;0.80;;;21.30;79.40;;;;;;5101728;27;45261;-67
2022/05/24 09:16:58;;;;;;;1.33;0.68;;;21.30;79.40;;;;;;5106756;27;45268;-66
2022/05/24 09:19:27;;;;;;;1.60;0.80;;;21.30;79.40;;;;;;5101647;27;45437;-67
2022/05/24 09:21:55;;;;;;;1.38;0.65;;;21.30;78.70;;;;;;5108410;27;45749;-66
2022/05/24 09:24:31;;;;;;;1.50;0.60;;;21.30;79.40;;;;;;5098080;27;45386;-67
2022/05/24 09:27:10;;;;;;;1.98;0.60;;;21.30;78.80;;;;;;5101211;27;45287;-67
2022/05/24 09:29:57;;;;;;;1.10;0.55;;;21.30;78.70;;;;;;5099708;27;46274;-67
2022/05/24 09:32:31;;;;;;;1.40;0.60;;;21.30;78.50;;;;;;5102250;27;45145;-66
2022/05/24 09:35:05;;;;;;;1.70;0.82;;;21.30;78.20;;;;;;5101571;27;45600;-67
2022/05/24 09:37:32;;;;;;;1.33;0.77;;;21.30;78.50;;;;;;5099464;27;45246;-67
2022/05/24 09:40:01;;;;;;;2.83;0.80;;;21.30;78.20;;;;;;5102580;27;46601;-67
2022/05/24 09:42:30;;;;;;;2.80;0.68;;;21.30;77.70;;;;;;5099611;27;45278;-67
2022/05/24 09:45:04;;;;;;;1.10;0.68;;;21.30;78.00;;;;;;5102178;27;45292;-67
2022/05/24 09:47:35;;;;;;;0.82;0.57;;;21.30;79.10;;;;;;5103562;27;45278;-67
2022/05/24 09:50:29;;;;;;;1.67;0.63;;;21.30;77.90;;;;;;5101810;27;45325;-67
2022/05/24 09:53:10;;;;;;;1.42;0.43;;;21.30;79.10;;;;;;5104069;27;45469;-67
2022/05/24 09:55:45;;;;;;;1.73;0.50;;;21.30;77.70;;;;;;5101099;27;45211;-67
2022/05/24 09:58:21;;;;;;;1.73;0.70;;;21.30;78.00;;;;;;5105492;27;45257;-67
2022/05/24 10:00:52;;;;;;;2.30;0.60;;;21.30;78.00;;;;;;5103051;27;47181;-67
2022/05/24 10:03:23;;;;;;;2.78;0.82;;;21.30;77.90;;;;;;5101072;27;45207;-67
2022/05/24 10:06:13;;;;;;;0.98;0.40;;;21.30;77.80;;;;;;5101863;27;45326;-67
2022/05/24 10:08:44;;;;;;;1.20;0.50;;;21.30;78.40;;;;;;5101046;27;45200;-67
2022/05/24 10:11:26;;;;;;;2.08;0.80;;;21.30;77.30;;;;;;5100712;27;45509;-67
2022/05/24 10:14:04;;;;;;;2.53;0.70;;;21.30;77.80;;;;;;5093576;27;45707;-67
2022/05/24 10:16:37;;;;;;;3.75;0.75;;;21.30;77.70;;;;;;5094637;27;46171;-67
2022/05/24 10:19:31;;;;;;;1.75;0.50;;;21.30;77.70;;;;;;5101988;27;45687;-67
2022/05/24 10:22:06;;;;;;;1.85;0.80;;;21.30;77.50;;;;;;5104846;27;46293;-67
2022/05/24 10:24:45;;;;;;;4.07;0.88;;;21.30;77.50;;;;;;5104225;27;45275;-67
2022/05/24 10:27:23;;;;;;;2.10;0.65;;;21.30;77.40;;;;;;5103082;27;45303;-67
2022/05/24 10:29:58;;;;;;;1.10;0.50;;;21.30;77.70;;;;;;5103784;27;45340;-67
2022/05/24 10:38:30;;;;;;;1.40;0.47;;;21.30;77.50;;;;;;5104824;27;45302;-67
2022/05/24 10:41:06;;;;;;;2.30;0.70;;;21.30;77.40;;;;;;5102681;27;45610;-67
2022/05/24 10:43:52;;;;;;;1.30;0.57;;;21.30;77.30;;;;;;5101520;27;45355;-67
2022/05/24 10:46:26;;;;;;;1.05;0.45;;;21.30;77.00;;;;;;5103569;27;45255;-67
2022/05/24 10:49:03;;;;;;;1.08;0.63;;;21.30;77.00;;;;;;5101831;27;45384;-67
2022/05/24 10:51:35;;;;;;;1.08;0.55;;;21.30;76.80;;;;;;5099451;27;45849;-66
2022/05/24 10:54:10;;;;;;;2.50;0.45;;;21.30;76.90;;;;;;5098870;27;46220;-66
2022/05/24 10:56:44;;;;;;;1.15;0.68;;;21.30;76.90;;;;;;5103419;27;45327;-66
2022/05/24 10:59:18;;;;;;;1.92;0.60;;;21.30;76.40;;;;;;5103868;27;45352;-67
2022/05/24 11:01:51;;;;;;;1.42;0.65;;;21.30;76.50;;;;;;5099948;27;45290;-67
2022/05/24 11:04:23;;;;;;;1.75;0.60;;;21.30;76.30;;;;;;5098554;27;46337;-66
2022/05/24 11:06:59;;;;;;;1.35;0.60;;;21.30;76.10;;;;;;5100368;27;45395;-67
2022/05/24 11:09:29;;;;;;;3.60;0.50;;;21.30;76.20;;;;;;5096156;27;45308;-67
2022/05/24 11:12:01;;;;;;;1.33;0.50;;;21.30;75.80;;;;;;5101411;27;45394;-66
2022/05/24 11:14:36;;;;;;;1.65;0.55;;;21.30;76.30;;;;;;5097533;27;45296;-67
2022/05/24 11:17:04;;;;;;;0.93;0.50;;;21.30;75.90;;;;;;5096486;27;46385;-67
2022/05/24 11:19:36;;;;;;;1.33;0.60;;;21.30;76.30;;;;;;5091253;27;45919;-66
2022/05/24 11:22:07;;;;;;;3.50;0.77;;;21.30;75.70;;;;;;5100505;27;45308;-66
2022/05/24 11:24:42;;;;;;;1.00;0.40;;;21.30;76.40;;;;;;5097936;27;46017;-66
2022/05/24 11:27:14;;;;;;;1.23;0.43;;;21.30;76.00;;;;;;5091321;27;45338;-66
2022/05/24 11:29:46;;;;;;;1.85;0.52;;;21.30;75.90;;;;;;5101436;27;45351;-66
2022/05/24 11:32:19;;;;;;;2.08;0.70;;;21.30;75.50;;;;;;5106058;27;45335;-66
2022/05/24 11:34:59;;;;;;;2.33;0.60;;;21.40;75.50;;;;;;5111388;27;45266;-66
2022/05/24 11:37:28;;;;;;;1.02;0.50;;;21.40;75.40;;;;;;5107783;27;45286;-66
2022/05/24 11:39:55;;;;;;;2.47;0.43;;;21.40;75.40;;;;;;5109171;27;45190;-66
2022/05/24 11:42:44;;;;;;;1.60;0.73;;;21.40;75.40;;;;;;5111689;27;45424;-66
2022/05/24 11:45:51;;;;;;;1.15;0.80;;;21.40;75.40;;;;;;5111733;27;46725;-66
2022/05/24 11:48:19;;;;;;;2.58;0.73;;;21.40;75.40;;;;;;5103858;27;45387;-67
2022/05/24 11:50:50;;;;;;;2.60;0.65;;;21.40;75.20;;;;;;5110109;27;45305;-67
2022/05/24 11:53:39;;;;;;;2.20;0.70;;;21.40;75.20;;;;;;5111194;27;45502;-67
2022/05/24 11:56:21;;;;;;;1.70;0.57;;;21.40;75.10;;;;;;5110666;27;46465;-66
2022/05/24 11:59:03;;;;;;;2.53;0.82;;;21.40;75.10;;;;;;5108626;27;45185;-67
2022/05/24 12:01:48;;;;;;;1.00;0.50;;;21.40;75.00;;;;;;5108618;27;45104;-67
2022/05/24 12:10:43;;;;;;;1.73;0.60;;;21.40;75.10;;;;;;5110320;27;45142;-66
2022/05/24 12:13:51;;;;;;;0.73;0.50;;;21.40;75.00;;;;;;5110519;27;45191;-67
2022/05/24 12:16:45;;;;;;;1.15;0.50;;;21.40;74.80;;;;;;5073279;28;45455;-66
2022/05/24 12:19:33;;;;;;;0.93;0.50;;;21.40;74.80;;;;;;5089882;28;47645;-66
2022/05/24 12:22:06;;;;;;;1.05;0.40;;;21.40;74.60;;;;;;5094060;27;45616;-66
2022/05/24 12:24:54;;;;;;;0.45;0.30;;;21.40;74.50;;;;;;5111041;27;45233;-66
2022/05/24 12:27:48;;;;;;;0.65;0.40;;;21.40;74.30;;;;;;5109508;27;45161;-66
2022/05/24 12:30:44;;;;;;;4.78;0.40;;;21.40;74.20;;;;;;5101344;27;46603;-66
2022/05/24 12:33:37;;;;;;;1.10;0.35;;;21.40;74.10;;;;;;5090242;27;45443;-66
2022/05/24 12:36:19;;;;;;;2.17;0.40;;;21.50;74.00;;;;;;5086194;27;47079;-66
2022/05/24 12:38:52;;;;;;;1.85;0.40;;;21.40;73.90;;;;;;5089002;27;45532;-67
2022/05/24 12:41:25;;;;;;;0.28;0.25;;;21.50;73.70;;;;;;5105135;27;47448;-66
2022/05/24 12:43:56;;;;;;;0.52;0.40;;;21.40;73.70;;;;;;5105449;27;45212;-66
2022/05/24 12:46:24;;;;;;;0.90;0.43;;;21.50;73.70;;;;;;5104163;27;45274;-66
2022/05/24 12:48:59;;;;;;;1.10;0.50;;;21.40;73.70;;;;;;5101714;27;45422;-66
2022/05/24 12:51:26;;;;;;;1.48;0.50;;;21.50;73.90;;;;;;5107595;27;48182;-66
2022/05/24 12:53:55;;;;;;;1.13;0.38;;;21.40;73.30;;;;;;5103947;27;45359;-67
2022/05/24 12:56:24;;;;;;;0.88;0.25;;;21.40;73.50;;;;;;5099386;27;45284;-66
2022/05/24 12:58:54;;;;;;;0.43;0.30;;;21.40;73.50;;;;;;5108462;27;45398;-66
2022/05/24 13:01:24;;;;;;;0.63;0.40;;;21.40;73.30;;;;;;5106819;27;47290;-67
2022/05/24 13:04:07;;;;;;;1.80;0.60;;;21.40;73.30;;;;;;5105728;27;45350;-66
2022/05/24 13:06:35;;;;;;;0.50;0.30;;;21.40;73.40;;;;;;5106952;27;45320;-66
2022/05/24 13:09:20;;;;;;;0.43;0.20;;;21.40;73.50;;;;;;5108371;27;45318;-66
2022/05/24 13:11:50;;;;;;;0.82;0.50;;;21.40;73.40;;;;;;5102022;27;47419;-68
2022/05/24 13:14:53;;;;;;;0.93;0.30;;;21.40;73.60;;;;;;5103218;27;45591;-66
2022/05/24 13:17:22;;;;;;;0.60;0.40;;;21.40;73.30;;;;;;5105120;27;45383;-66
2022/05/24 13:19:55;;;;;;;2.33;0.57;;;21.40;73.30;;;;;;5105053;27;45527;-66
2022/05/24 13:22:23;;;;;;;0.52;0.32;;;21.40;73.60;;;;;;5098507;27;46178;-66
2022/05/24 13:25:02;;;;;;;0.50;0.30;;;21.40;73.70;;;;;;5106833;27;45546;-66
2022/05/24 13:27:51;;;;;;;1.42;0.40;;;21.40;73.80;;;;;;5102643;27;45281;-66
2022/05/24 13:35:49;;;;;;;1.25;0.35;;;21.40;73.40;;;;;;5106369;27;45292;-66
2022/05/24 13:38:24;;;;;;;1.33;0.40;;;21.40;73.50;;;;;;5102553;27;45302;-66
2022/05/24 13:40:54;;;;;;;1.50;0.57;;;21.40;73.50;;;;;;5106075;27;45227;-66
2022/05/24 13:43:33;;;;;;;0.77;0.40;;;21.30;73.40;;;;;;5099060;27;46350;-66
2022/05/24 13:46:15;;;;;;;1.60;0.35;;;21.40;73.60;;;;;;5099422;27;45272;-66
2022/05/24 13:48:43;;;;;;;0.47;0.20;;;21.30;73.20;;;;;;5102227;27;45511;-66